• Join FlightAware (Why Join?)
  • Login
  • US Flag 
07:15AM EST


 

Airport Tracker/Info


-or-


 

Live Flight TrackerFlight Track Log ✈ N476DS ✈ 27-Jul-2013 ✈ KPVC - KCDW

Flight Track Log - Related Links

Times and Time Zones

All times are in EDT time to prevent confusion due to time zone crossing. See the N476DS flight status page for this flight to view local times or setup timezone preferences in your user account.

Time Position Orientation Groundspeed Altitude Reporting Facility
EDT Latitude Longitude Course Direction KTS MPH feet Rate Location/Type
08:34PM 41.9994 -70.4518 246° West  Level FlightAware Approximate
08:35PM 41.9865 -70.4907 246° West  Level FlightAware Approximate
08:36PM 41.9735 -70.5296 246° West  Level FlightAware Approximate
08:37PM 41.9651 -70.5697 236° Southwest  Level FlightAware Approximate
08:38PM 41.9484 -70.6058 249° West  Level FlightAware Approximate
08:39PM 41.9371 -70.6456 249° West  Level FlightAware Approximate
08:40PM 41.9258 -70.6854 249° West  Level FlightAware Approximate
08:41PM 41.9145 -70.7253 249° West  Level FlightAware Approximate
08:42PM 41.9032 -70.7651 249° West  Level FlightAware Approximate
08:43PM 41.8919 -70.8049 249° West  Level FlightAware Approximate
08:43PM 41.8983 -70.7722 249° West 131 151 7,900  Level Boston Center
08:44PM 41.8806 -70.8446 249° West  Level FlightAware Approximate
08:44PM 41.8825 -70.8367 252° West 132 152 7,900  Level Boston Center
08:45PM 41.8692 -70.8844 249° West  Level FlightAware Approximate
08:45PM 41.8708 -70.8817 251° West 129 148 8,000  Level Boston Center
08:46PM 41.8579 -70.9241 249° West  Level FlightAware Approximate
08:46PM 41.8569 -70.9350 251° West 127 146 8,000  Level Boston Center
08:47PM 41.8465 -70.9639 249° West  Level FlightAware Approximate
08:47PM 41.8450 -70.9797 250° West 133 153 8,000  Level Boston Center
08:48PM 41.8351 -71.0036 249° West  Level FlightAware Approximate
08:48PM 41.8308 -71.0247 247° West 131 151 8,000  Level Boston Center
08:49PM 41.8192 -71.0750 253° West 131 151 8,000  Level Boston Center
08:50PM 41.8069 -71.1200 250° West 129 148 8,000  Level Boston Center
08:52PM 41.7866 -71.1745 243° Southwest  Level FlightAware Approximate
08:52PM 41.7831 -71.2122 243° Southwest 125 144 8,000  Level Boston Center
08:53PM 41.7731 -71.2542 252° West 127 146 8,000  Level Boston Center
08:54PM 41.7589 -71.2992 247° West 126 145 8,000  Level Boston Center
08:55PM 41.7469 -71.3439 250° West 127 146 8,000  Level Boston Center
08:56PM 41.7347 -71.3886 250° West 124 143 8,000  Level Boston Center
08:57PM 41.7228 -71.4306 249° West 125 144 8,000  Level Boston Center
08:58PM 41.7189 -71.4778 264° West 133 153 8,000  Level Boston Center
08:59PM 41.7153 -71.5253 264° West 127 146 8,000  Level Boston Center
09:00PM 41.7136 -71.5725 267° West 134 154 8,000  Level Boston Center
09:01PM 41.7097 -71.6142 263° West 128 147 8,000  Level Boston Center
09:02PM 41.7058 -71.6672 264° West 130 150 8,000  Level Boston Center
09:03PM 41.7019 -71.7144 264° West 129 148 8,000  Level Boston Center
09:04PM 41.7003 -71.7617 267° West 130 150 8,000  Level Boston Center
09:05PM 41.6964 -71.8117 264° West 130 150 8,000  Level Boston Center
09:07PM 41.6906 -71.8814 264° West 132 152 8,000  Level Boston Center
09:08PM 41.6886 -71.9314 267° West 133 153 8,000  Level Boston Center
09:09PM 41.6825 -71.9786 260° West 131 151 8,000  Level Boston Center
09:10PM 41.6786 -72.0258 264° West 127 146 8,000  Level Boston Center
09:11PM 41.6661 -72.0733 251° West 128 147 8,000  Level Boston Center
09:12PM 41.6558 -72.1178 253° West 128 147 8,000  Level Boston Center
09:13PM 41.6436 -72.1622 250° West 127 146 8,000  Level Boston Center
09:14PM 41.6311 -72.2067 249° West 128 147 8,000  Level Boston Center
09:15PM 41.6208 -72.2542 254° West 127 146 8,000  Level Boston Center
09:16PM 41.6083 -72.3014 251° West 130 150 8,000  Level Boston Center
09:17PM 41.5981 -72.3456 253° West 130 150 8,000  Level Boston Center
09:18PM 41.5856 -72.3900 249° West 127 146 8,000  Level Boston Center
09:19PM 41.5750 -72.4344 252° West 128 147 8,000 -300 Level Boston Center
09:20PM 41.5625 -72.4872 252° West 140 161 7,400 -550 Descending Boston Center
09:21PM 41.5481 -72.5400 250° West 156 180 6,900 -595 Descending Boston Center
09:22PM 41.5333 -72.5953 250° West 152 175 6,200 -281 Descending Boston Center
09:24PM 41.5000 -72.7000 247° West 142 163 6,000 -61 Descending New York TRACON
09:25PM 41.5000 -72.7500 270° West 133 153 6,000  Level New York TRACON
09:26PM 41.4833 -72.8000 246° West 132 152 6,000  Level New York TRACON
09:27PM 41.4667 -72.8500 246° West 133 153 6,000  Level New York TRACON
09:28PM 41.4667 -72.8833 270° West 129 148 6,000  Level New York TRACON
09:29PM 41.4500 -72.9333 246° West 134 154 6,000  Level New York TRACON
09:30PM 41.4333 -72.9833 246° West 135 155 6,000  Level New York TRACON
09:31PM 41.4167 -73.0333 246° West 136 157 6,000  Level New York TRACON
09:32PM 41.4167 -73.0667 270° West 130 150 6,000  Level New York TRACON
09:33PM 41.4000 -73.1167 246° West 130 150 6,000  Level New York TRACON
09:34PM 41.3833 -73.1667 246° West 132 152 6,000  Level New York TRACON
09:35PM 41.3833 -73.2167 270° West 130 150 6,000  Level New York TRACON
09:36PM 41.3667 -73.2500 236° Southwest 132 152 6,000  Level New York TRACON
09:37PM 41.3500 -73.3000 246° West 134 154 6,000  Level New York TRACON
09:38PM 41.3500 -73.3500 270° West 136 157 6,000  Level New York TRACON
09:39PM 41.3333 -73.3833 236° Southwest 132 152 6,000  Level New York TRACON
09:40PM 41.3167 -73.4333 246° West 130 150 6,000  Level New York TRACON
09:41PM 41.3000 -73.4833 246° West 138 159 6,000  Level New York TRACON
09:42PM 41.3000 -73.5333 270° West 132 152 6,000  Level New York TRACON
09:43PM 41.2833 -73.5833 246° West 134 154 6,000  Level New York TRACON
09:44PM 41.2833 -73.6333 270° West 139 160 6,000 -286 Level New York TRACON
09:45PM 41.2667 -73.6833 246° West 156 180 5,400 -476 Descending New York TRACON
09:46PM 41.2667 -73.7500 270° West 156 180 5,000 -474 Descending New York TRACON
09:47PM 41.2667 -73.8000 270° West 157 181 4,500 -526 Descending New York TRACON
09:48PM 41.2500 -73.8667 252° West 160 184 4,000 -263 Descending New York TRACON
09:49PM 41.2500 -73.9167 270° West 147 169 4,000  Level New York TRACON
09:50PM 41.2500 -73.9667 270° West 144 166 4,000 -238 Level New York TRACON
09:51PM 41.2167 -74.0000 217° Southwest 150 173 3,500 -500 Descending New York TRACON
09:52PM 41.1833 -74.0333 217° Southwest 148 170 3,000 -250 Descending New York TRACON
09:53PM 41.1500 -74.0667 217° Southwest 134 154 3,000  Level New York TRACON
09:54PM 41.1167 -74.0833 201° Southwest 132 152 3,000 -100 Level New York TRACON
09:55PM 41.1000 -74.1167 236° Southwest 141 162 2,800 -500 Descending New York TRACON
09:56PM 41.0500 -74.1500 207° Southwest 148 170 2,000 -397 Descending New York TRACON
09:57PM 41.0333 -74.1667 217° Southwest 112 129 2,000  Level New York TRACON
09:58PM 41.0000 -74.1833 201° Southwest 103 119 2,000  Level New York TRACON
09:59PM 40.9833 -74.2000 217° Southwest 101 116 2,000  Level New York TRACON
10:00PM 40.9500 -74.2167 201° Southwest 106 122 2,000 -250 Level New York TRACON
10:01PM 40.9333 -74.2333 217° Southwest 94 108 1,500 -526 Descending New York TRACON
10:02PM 40.9167 -74.2500 217° Southwest 83 96 1,000 -500 Descending New York TRACON